Time;durP1;ratioP1;P1;durP2;ratioP2;P2;SDS_P1;SDS_P2;PMS_P1;PMS_P2;Temp;Humidity;BMP_temperature;BMP_pressure;BME280_temperature;BME280_humidity;BME280_pressure;Samples;Min_cycle;Max_cycle;Signal;HPM_P1;HPM_P2
2021/06/28 00:00:10;;;;;;;10.25;4.90;;;;;;;20.49;58.08;94157.84;5068669;28;20040;-77
2021/06/28 00:02:36;;;;;;;7.40;4.15;;;;;;;20.46;58.51;94157.84;5058731;28;20071;-77
2021/06/28 00:05:02;;;;;;;10.60;4.32;;;;;;;20.43;57.77;94154.72;5070775;28;20121;-77
2021/06/28 00:07:27;;;;;;;6.22;3.47;;;;;;;20.41;58.34;94151.59;5069641;28;20511;-77
2021/06/28 00:09:53;;;;;;;6.10;3.55;;;;;;;20.29;59.10;94154.50;5066157;28;20052;-77
2021/06/28 00:12:18;;;;;;;8.18;4.00;;;;;;;20.27;58.97;94162.22;5064269;28;20302;-77
2021/06/28 00:14:43;;;;;;;12.95;4.40;;;;;;;20.27;59.25;94156.81;5058638;28;20056;-77
2021/06/28 00:17:09;;;;;;;5.72;3.50;;;;;;;20.26;59.18;94166.09;5049330;28;20033;-78
2021/06/28 00:19:34;;;;;;;7.30;4.63;;;;;;;20.22;59.21;94171.44;5050549;28;20504;-78
2021/06/28 00:22:00;;;;;;;6.65;3.97;;;;;;;20.18;59.27;94169.84;5050616;28;20032;-77
2021/06/28 00:24:25;;;;;;;10.18;4.20;;;;;;;20.13;59.54;94168.25;5050556;28;20071;-77
2021/06/28 00:26:50;;;;;;;6.07;3.75;;;;;;;20.09;59.95;94161.19;5058010;28;20020;-76
2021/06/28 00:29:16;;;;;;;9.60;4.05;;;;;;;20.06;60.29;94165.44;5070326;28;20551;-79
2021/06/28 00:31:41;;;;;;;8.32;3.72;;;;;;;20.01;59.99;94163.06;5069627;28;20093;-78
2021/06/28 00:34:07;;;;;;;14.50;4.28;;;;;;;19.99;59.81;94171.53;5050311;28;20041;-79
2021/06/28 00:36:32;;;;;;;7.82;4.38;;;;;;;19.97;60.40;94170.34;5064919;28;20025;-79
2021/06/28 00:38:58;;;;;;;8.90;3.85;;;;;;;19.91;60.57;94156.34;5068663;28;20028;-79
2021/06/28 00:41:24;;;;;;;9.65;4.40;;;;;;;19.81;60.76;94157.75;5065993;28;20489;-79
2021/06/28 00:43:50;;;;;;;8.32;4.05;;;;;;;19.76;60.94;94160.78;5070022;28;20145;-79
2021/06/28 00:46:15;;;;;;;6.70;4.25;;;;;;;19.78;60.82;94165.78;5065438;28;20028;-79
2021/06/28 00:48:40;;;;;;;6.22;3.78;;;;;;;19.74;60.77;94160.34;5064011;28;20065;-79
2021/06/28 00:51:06;;;;;;;5.00;3.97;;;;;;;19.71;60.94;94154.88;5061586;28;20139;-79
2021/06/28 00:53:32;;;;;;;10.05;4.47;;;;;;;19.68;61.02;94161.75;5068917;28;20089;-77
2021/06/28 00:56:09;;;;;;;12.00;4.45;;;;;;;19.63;61.32;94152.03;5069805;28;20105;-77
2021/06/28 00:58:40;;;;;;;11.75;4.97;;;;;;;19.61;61.73;94153.53;5070039;28;20031;-77
2021/06/28 01:01:06;;;;;;;10.82;5.13;;;;;;;19.57;61.70;94156.19;5062769;28;20040;-78
2021/06/28 01:03:32;;;;;;;8.05;4.88;;;;;;;19.56;61.63;94151.13;5062058;28;20399;-78
2021/06/28 01:05:59;;;;;;;9.57;4.60;;;;;;;19.56;62.10;94151.13;5064108;28;20059;-78
2021/06/28 01:08:24;;;;;;;7.75;4.47;;;;;;;19.51;62.11;94148.75;5050369;28;20077;-78
2021/06/28 01:10:50;;;;;;;11.02;4.57;;;;;;;19.47;61.89;94146.00;5048462;28;20630;-78
2021/06/28 01:13:15;;;;;;;8.55;4.45;;;;;;;19.42;61.96;94149.00;5049733;28;20053;-77
2021/06/28 01:15:42;;;;;;;13.77;4.45;;;;;;;19.37;62.74;94144.66;5049830;28;20488;-77
2021/06/28 01:18:08;;;;;;;9.07;4.30;;;;;;;19.33;63.11;94151.16;5049538;28;20162;-77
2021/06/28 01:20:34;;;;;;;9.68;4.63;;;;;;;19.30;63.45;94154.59;5048671;28;20033;-77
2021/06/28 01:23:20;;;;;;;9.20;4.65;;;;;;;19.26;63.53;94151.84;5058692;28;20480;-77
2021/06/28 01:25:48;;;;;;;8.00;4.70;;;;;;;19.22;63.92;94145.59;5060172;28;20470;-77
2021/06/28 01:28:15;;;;;;;6.97;4.60;;;;;;;19.13;63.76;94142.34;5069333;28;20052;-80
2021/06/28 01:30:40;;;;;;;12.48;4.75;;;;;;;19.10;64.06;94146.53;5069712;28;20145;-79
2021/06/28 01:33:06;;;;;;;10.15;4.57;;;;;;;19.11;63.98;94150.03;5058815;28;20048;-79
2021/06/28 01:35:31;;;;;;;11.93;5.10;;;;;;;19.11;64.21;94153.53;5052845;28;20024;-77
2021/06/28 01:37:57;;;;;;;11.25;5.35;;;;;;;19.08;64.02;94153.47;5053713;28;20059;-78
2021/06/28 01:40:23;;;;;;;7.72;5.03;;;;;;;19.06;64.00;94153.81;5067592;28;20030;-77
2021/06/28 01:42:49;;;;;;;10.27;5.63;;;;;;;19.03;64.10;94162.63;5049736;28;20029;-78
2021/06/28 01:45:20;;;;;;;10.73;5.40;;;;;;;18.98;64.91;94158.31;5066095;28;20024;-79
2021/06/28 01:47:46;;;;;;;9.55;5.88;;;;;;;18.95;65.19;94161.72;5049574;28;20108;-79
2021/06/28 01:50:13;;;;;;;16.80;5.72;;;;;;;18.94;65.30;94165.56;5047862;28;20040;-78
2021/06/28 01:52:39;;;;;;;10.48;5.90;;;;;;;18.93;65.04;94169.41;5048541;28;20021;-78
2021/06/28 01:55:07;;;;;;;9.40;5.30;;;;;;;18.93;65.28;94164.00;5069691;28;20035;-77
2021/06/28 01:57:35;;;;;;;13.38;5.95;;;;;;;18.86;65.30;94168.50;5060730;28;20021;-79
2021/06/28 02:00:01;;;;;;;10.82;5.25;;;;;;;18.81;65.67;94166.88;5048144;28;20033;-79
2021/06/28 02:02:26;;;;;;;8.05;5.32;;;;;;;18.80;65.40;94168.00;5066737;28;20151;-79
2021/06/28 02:04:52;;;;;;;8.52;5.50;;;;;;;18.76;65.43;94170.59;5068169;28;20032;-79
2021/06/28 02:07:17;;;;;;;10.77;5.07;;;;;;;18.74;65.07;94166.69;5058826;28;20032;-78
2021/06/28 02:09:43;;;;;;;12.38;7.57;;;;;;;18.70;65.48;94166.63;5049389;28;20120;-79
2021/06/28 02:12:09;;;;;;;8.40;4.72;;;;;;;18.67;65.23;94166.56;5045267;28;20075;-77
2021/06/28 02:14:34;;;;;;;8.43;5.15;;;;;;;18.67;65.31;94167.34;5049052;28;20555;-77
2021/06/28 02:17:00;;;;;;;10.38;5.18;;;;;;;18.64;65.21;94170.75;5066578;28;20028;-77
2021/06/28 02:19:26;;;;;;;8.10;4.65;;;;;;;18.58;65.86;94177.56;5054914;28;20033;-77
2021/06/28 02:21:52;;;;;;;7.88;5.07;;;;;;;18.50;65.79;94171.28;5052772;28;20061;-77
2021/06/28 02:24:18;;;;;;;10.75;5.25;;;;;;;18.46;66.26;94178.53;5051529;28;20124;-77
2021/06/28 02:26:45;;;;;;;8.77;5.53;;;;;;;18.43;66.36;94168.41;5064320;28;20056;-77
2021/06/28 02:29:10;;;;;;;9.50;5.75;;;;;;;18.42;66.38;94169.56;5072556;28;20028;-77
2021/06/28 02:31:36;;;;;;;8.02;5.30;;;;;;;18.41;66.08;94176.09;5072373;28;20107;-76
2021/06/28 02:34:02;;;;;;;11.88;5.15;;;;;;;18.38;66.06;94179.50;5072538;28;20105;-76
2021/06/28 02:36:28;;;;;;;8.95;5.22;;;;;;;18.37;66.21;94164.44;5071104;28;20028;-76
2021/06/28 02:38:55;;;;;;;12.27;5.60;;;;;;;18.25;66.89;94170.75;5072415;28;20116;-76
2021/06/28 02:41:22;;;;;;;12.88;5.22;;;;;;;18.22;66.88;94172.25;5072698;28;20055;-75
2021/06/28 02:43:50;;;;;;;14.00;5.28;;;;;;;18.21;66.95;94178.00;5060862;28;20040;-75
2021/06/28 02:46:16;;;;;;;11.55;6.45;;;;;;;18.18;66.77;94174.09;5052342;28;20040;-75
2021/06/28 02:48:42;;;;;;;12.73;5.05;;;;;;;18.19;66.71;94161.38;5052095;28;20027;-75
2021/06/28 02:51:11;;;;;;;8.60;5.10;;;;;;;18.18;66.70;94160.59;5061882;28;20100;-75
2021/06/28 02:53:37;;;;;;;9.55;5.95;;;;;;;18.14;66.96;94173.22;5072022;28;20021;-75
2021/06/28 02:56:12;;;;;;;9.10;5.43;;;;;;;18.14;66.87;94170.53;5070812;28;20027;-75
2021/06/28 02:58:42;;;;;;;11.80;5.93;;;;;;;18.13;67.31;94174.34;5071945;28;20040;-75
2021/06/28 03:01:08;;;;;;;10.07;5.60;;;;;;;18.09;67.29;94176.19;5070711;28;20045;-75
2021/06/28 03:03:34;;;;;;;9.30;5.25;;;;;;;18.06;66.99;94187.69;5071881;28;20044;-74
2021/06/28 03:05:59;;;;;;;9.93;5.43;;;;;;;18.07;67.08;94183.84;5071959;28;20518;-75
2021/06/28 03:08:25;;;;;;;13.23;5.90;;;;;;;18.07;67.48;94183.84;5071865;28;20125;-75
2021/06/28 03:10:50;;;;;;;8.90;5.45;;;;;;;18.02;67.49;94189.53;5071662;28;20032;-75
2021/06/28 03:13:16;;;;;;;10.50;4.88;;;;;;;18.01;67.60;94187.97;5071584;28;20045;-75
2021/06/28 03:15:41;;;;;;;9.77;5.53;;;;;;;18.03;67.46;94183.00;5071754;28;20559;-75
2021/06/28 03:18:07;;;;;;;16.02;5.68;;;;;;;18.01;67.51;94182.56;5071805;28;20070;-75
2021/06/28 03:20:32;;;;;;;9.90;5.45;;;;;;;18.02;67.80;94186.84;5050539;28;20064;-75
2021/06/28 03:22:58;;;;;;;14.05;5.55;;;;;;;18.02;67.80;94181.44;5051377;28;20028;-75
2021/06/28 03:25:23;;;;;;;9.20;5.78;;;;;;;18.04;67.41;94182.66;5050258;28;20029;-74
2021/06/28 03:27:49;;;;;;;12.68;5.93;;;;;;;18.04;67.17;94176.47;5048878;28;20409;-75
2021/06/28 03:30:15;;;;;;;7.82;5.78;;;;;;;18.10;67.00;94180.47;5051433;28;20028;-75
2021/06/28 03:32:41;;;;;;;9.73;5.60;;;;;;;18.13;66.74;94177.03;5051928;28;20025;-75
2021/06/28 03:35:07;;;;;;;8.98;5.18;;;;;;;18.13;66.81;94174.34;5071386;28;20534;-75
2021/06/28 03:37:33;;;;;;;8.68;5.20;;;;;;;18.21;66.19;94178.00;5071458;28;20051;-75
2021/06/28 03:39:59;;;;;;;10.73;5.47;;;;;;;18.26;66.36;94180.41;5069763;28;20119;-75
2021/06/28 03:42:24;;;;;;;9.05;5.35;;;;;;;18.33;66.52;94187.88;5070012;28;20396;-76
2021/06/28 03:44:50;;;;;;;8.45;5.10;;;;;;;18.37;65.92;94186.03;5062048;28;20036;-76
2021/06/28 03:47:15;;;;;;;11.80;5.88;;;;;;;18.43;65.77;94188.09;5049849;28;20132;-76
2021/06/28 03:49:41;;;;;;;8.25;5.25;;;;;;;18.49;65.36;94194.00;5049917;28;20083;-76
2021/06/28 03:52:06;;;;;;;13.52;6.20;;;;;;;18.59;66.17;94195.34;5050840;28;20024;-76
2021/06/28 03:54:31;;;;;;;8.35;5.50;;;;;;;18.63;65.97;94201.59;5051142;28;20032;-76
2021/06/28 03:56:57;;;;;;;9.95;5.68;;;;;;;18.71;65.04;94199.81;5049819;28;20047;-76
2021/06/28 03:59:22;;;;;;;10.02;5.60;;;;;;;18.75;65.36;94204.16;5049587;28;20028;-75
2021/06/28 04:01:49;;;;;;;9.70;6.32;;;;;;;18.82;64.76;94198.91;5051029;28;20037;-75
2021/06/28 04:04:14;;;;;;;10.00;6.10;;;;;;;18.88;64.26;94193.22;5069270;28;20105;-75
2021/06/28 04:06:40;;;;;;;12.57;5.65;;;;;;;18.92;63.53;94192.16;5069362;28;20119;-75
2021/06/28 04:09:05;;;;;;;10.70;6.30;;;;;;;18.98;63.59;94206.91;5068940;28;20040;-75
2021/06/28 04:11:31;;;;;;;8.90;5.60;;;;;;;19.01;62.93;94194.59;5070760;28;20502;-75
2021/06/28 04:13:57;;;;;;;10.93;5.55;;;;;;;19.14;62.40;94197.94;5068977;28;20040;-75
2021/06/28 04:16:22;;;;;;;10.52;4.72;;;;;;;19.20;61.80;94191.09;5070729;28;20028;-75
2021/06/28 04:18:48;;;;;;;11.98;5.05;;;;;;;19.31;60.75;94194.75;5070655;28;20029;-75
2021/06/28 04:21:13;;;;;;;8.65;5.10;;;;;;;19.38;61.45;94203.00;5070356;28;20032;-75
2021/06/28 04:23:39;;;;;;;14.55;7.03;;;;;;;19.44;62.13;94198.84;5070500;28;20024;-75
2021/06/28 04:26:04;;;;;;;19.60;5.63;;;;;;;19.47;62.48;94199.28;5068915;28;20028;-75
2021/06/28 04:28:30;;;;;;;12.35;6.30;;;;;;;19.53;62.58;94205.94;5070075;28;20139;-75
2021/06/28 04:30:56;;;;;;;11.77;5.72;;;;;;;19.52;63.05;94207.88;5070451;28;20036;-75
2021/06/28 04:33:22;;;;;;;9.93;5.05;;;;;;;19.56;62.99;94202.50;5069943;28;20033;-75
2021/06/28 04:35:47;;;;;;;11.48;5.35;;;;;;;19.53;62.29;94214.06;5070414;28;20400;-75
2021/06/28 04:38:13;;;;;;;11.70;5.20;;;;;;;19.55;60.75;94209.06;5068595;28;20033;-75
2021/06/28 04:40:38;;;;;;;10.98;5.40;;;;;;;19.55;61.31;94211.78;5063936;28;20036;-75
2021/06/28 04:43:04;;;;;;;15.65;5.82;;;;;;;19.61;60.95;94207.63;5050017;28;20102;-75
2021/06/28 04:45:29;;;;;;;8.57;5.07;;;;;;;19.71;61.96;94212.44;5050135;28;20025;-75
2021/06/28 04:47:55;;;;;;;11.93;5.00;;;;;;;19.77;60.66;94210.22;5050116;28;20029;-75
2021/06/28 04:50:23;;;;;;;9.63;4.93;;;;;;;19.88;59.80;94215.78;5050640;28;20075;-75
2021/06/28 04:52:50;;;;;;;9.73;5.35;;;;;;;19.99;59.79;94211.34;5070241;28;20421;-76
2021/06/28 04:55:16;;;;;;;10.98;5.22;;;;;;;20.08;60.05;94208.34;5068578;28;20403;-75
2021/06/28 04:57:43;;;;;;;13.95;6.15;;;;;;;20.16;60.04;94216.19;5069902;28;20024;-75
2021/06/28 05:00:11;;;;;;;10.35;5.97;;;;;;;20.22;60.78;94220.16;5060968;28;20032;-76
2021/06/28 05:02:37;;;;;;;16.33;6.53;;;;;;;20.31;59.74;94211.00;5049873;28;20403;-76
2021/06/28 05:05:04;;;;;;;10.07;5.93;;;;;;;20.33;59.41;94219.53;5049802;28;20021;-75
2021/06/28 05:07:29;;;;;;;10.75;6.68;;;;;;;20.39;59.11;94216.16;5048218;28;20704;-75
2021/06/28 05:09:56;;;;;;;15.27;5.75;;;;;;;20.45;59.43;94216.59;5049878;28;20036;-75
2021/06/28 05:12:21;;;;;;;11.60;6.22;;;;;;;20.48;59.85;94221.28;5049415;28;20476;-76
2021/06/28 05:14:47;;;;;;;23.98;7.07;;;;;;;20.46;60.26;94228.22;5063240;28;20040;-76
2021/06/28 05:17:12;;;;;;;14.18;7.30;;;;;;;20.47;60.81;94222.41;5068807;28;20337;-76
2021/06/28 05:19:38;;;;;;;11.93;7.50;;;;;;;20.50;60.31;94224.41;5048488;28;20052;-76
2021/06/28 05:22:04;;;;;;;12.32;6.57;;;;;;;20.58;60.40;94234.22;5049436;28;20114;-76
2021/06/28 05:24:30;;;;;;;14.75;7.20;;;;;;;20.68;59.88;94219.25;5048064;28;20035;-76
2021/06/28 05:26:56;;;;;;;9.60;6.88;;;;;;;20.79;59.02;94220.16;5049662;28;20105;-76
2021/06/28 05:29:22;;;;;;;19.60;6.50;;;;;;;20.88;58.74;94233.41;5048254;28;20112;-75
2021/06/28 05:31:47;;;;;;;12.85;6.90;;;;;;;20.93;57.51;94229.59;5049785;28;20033;-75
2021/06/28 05:34:13;;;;;;;13.63;7.10;;;;;;;21.01;57.97;94231.25;5048406;28;20475;-75
2021/06/28 05:36:38;;;;;;;12.38;6.25;;;;;;;21.10;57.59;94244.50;5049519;28;20427;-75
2021/06/28 05:39:05;;;;;;;15.90;6.10;;;;;;;21.17;57.05;94233.75;5048437;28;20025;-75
2021/06/28 05:41:30;;;;;;;19.25;6.43;;;;;;;21.27;57.01;94241.19;5049406;28;20021;-75
2021/06/28 05:43:56;;;;;;;13.98;6.18;;;;;;;21.37;57.85;94254.09;5049402;28;20028;-75
2021/06/28 05:46:22;;;;;;;15.85;6.60;;;;;;;21.41;56.95;94249.47;5057726;28;20021;-75
2021/06/28 05:48:47;;;;;;;10.07;6.35;;;;;;;21.49;56.58;94261.19;5069533;28;20368;-75
2021/06/28 05:51:13;;;;;;;18.90;6.10;;;;;;;21.58;55.52;94258.19;5071321;28;20119;-75
2021/06/28 05:53:40;;;;;;;10.45;6.20;;;;;;;21.61;55.59;94269.03;5073046;28;20044;-75
2021/06/28 05:56:07;;;;;;;11.55;5.47;;;;;;;21.71;55.57;94256.75;5073177;28;20492;-75
2021/06/28 05:58:32;;;;;;;11.70;5.95;;;;;;;21.74;54.83;94261.44;5071527;28;20024;-75
2021/06/28 06:00:59;;;;;;;16.48;7.53;;;;;;;21.81;55.29;94266.91;5072967;28;20032;-76
2021/06/28 06:03:25;;;;;;;14.07;5.82;;;;;;;21.82;53.88;94268.47;5073066;28;20032;-75
2021/06/28 06:05:52;;;;;;;15.02;6.47;;;;;;;21.90;53.54;94272.03;5071448;28;20025;-76
2021/06/28 06:08:23;;;;;;;16.05;6.78;;;;;;;21.89;53.58;94272.41;5072756;28;20028;-76
2021/06/28 06:10:49;;;;;;;13.27;6.53;;;;;;;21.89;52.93;94272.41;5071107;28;20611;-76
2021/06/28 06:13:14;;;;;;;12.60;6.18;;;;;;;21.86;53.01;94265.00;5072345;28;20076;-76
2021/06/28 06:15:39;;;;;;;15.35;6.50;;;;;;;21.78;53.87;94264.94;5059794;28;20070;-76
2021/06/28 06:18:05;;;;;;;18.52;6.53;;;;;;;21.82;54.60;94271.19;5052462;28;20078;-76
2021/06/28 06:20:31;;;;;;;14.10;6.30;;;;;;;21.87;54.20;94280.13;5059425;28;20025;-73
2021/06/28 06:22:57;;;;;;;13.90;6.60;;;;;;;21.96;54.54;94267.81;5061239;28;20017;-74
2021/06/28 06:25:22;;;;;;;11.48;6.28;;;;;;;22.04;53.93;94274.06;5066941;28;20020;-74
2021/06/28 06:27:47;;;;;;;14.73;6.22;;;;;;;22.14;54.55;94267.94;5060136;28;20244;-78
2021/06/28 06:30:14;;;;;;;13.10;6.03;;;;;;;22.14;54.82;94267.94;5058862;28;20048;-76
2021/06/28 06:32:39;;;;;;;13.77;6.38;;;;;;;22.13;53.91;94266.38;5069065;28;20029;-78
2021/06/28 06:35:06;;;;;;;12.18;6.25;;;;;;;22.17;53.29;94269.91;5067511;28;20503;-83
2021/06/28 06:37:31;;;;;;;12.20;6.82;;;;;;;22.17;52.86;94278.06;5076616;28;20009;-84
2021/06/28 06:39:57;;;;;;;14.98;6.07;;;;;;;22.16;52.71;94271.06;5070605;28;20508;-82
2021/06/28 06:42:23;;;;;;;10.73;6.03;;;;;;;22.20;52.83;94276.50;5062562;28;20082;-83
2021/06/28 06:44:48;;;;;;;14.50;6.53;;;;;;;22.28;52.55;94280.09;5054095;28;20020;-72
2021/06/28 06:47:13;;;;;;;24.48;5.75;;;;;;;22.32;52.43;94278.94;5064279;28;20392;-71
2021/06/28 06:49:39;;;;;;;18.98;5.50;;;;;;;22.36;52.85;94279.00;5062451;28;20023;-70
2021/06/28 06:52:05;;;;;;;18.88;5.38;;;;;;;22.43;51.52;94273.63;5063808;28;20024;-71
2021/06/28 06:54:30;;;;;;;15.40;4.57;;;;;;;22.55;50.99;94278.72;5062153;28;21589;-70
2021/06/28 06:56:56;;;;;;;19.15;6.15;;;;;;;22.63;51.54;94271.38;5067885;28;20082;-71
2021/06/28 06:59:21;;;;;;;16.45;5.70;;;;;;;22.69;52.02;94269.84;5069760;28;20008;-69
2021/06/28 07:01:46;;;;;;;13.38;5.10;;;;;;;22.71;51.21;94272.97;5054532;28;20043;-69
2021/06/28 07:04:14;;;;;;;23.55;5.28;;;;;;;22.76;51.93;94263.69;5067401;28;20047;-68
2021/06/28 07:06:41;;;;;;;14.55;5.43;;;;;;;22.80;51.00;94270.72;5052473;28;20094;-69
2021/06/28 07:09:06;;;;;;;10.18;5.20;;;;;;;22.83;50.61;94266.44;5070760;28;20024;-69
2021/06/28 07:11:31;;;;;;;7.85;4.53;;;;;;;22.82;50.07;94267.63;5071861;28;20031;-71
2021/06/28 07:13:59;;;;;;;13.70;5.63;;;;;;;22.91;50.38;94273.47;5067468;28;20049;-69
2021/06/28 07:16:30;;;;;;;11.48;5.25;;;;;;;22.92;49.89;94275.03;5060763;28;20048;-70
2021/06/28 07:18:55;;;;;;;15.00;5.32;;;;;;;22.95;49.39;94268.06;5055450;28;20102;-69
2021/06/28 07:21:21;;;;;;;9.20;5.25;;;;;;;23.05;48.46;94266.56;5066555;28;20545;-68
2021/06/28 07:23:48;;;;;;;9.02;5.45;;;;;;;23.15;48.79;94265.84;5060862;28;20031;-70
2021/06/28 07:26:13;;;;;;;22.35;6.90;;;;;;;23.31;48.15;94262.78;5058281;28;20025;-70
2021/06/28 07:28:39;;;;;;;9.40;4.57;;;;;;;23.36;47.87;94257.72;5055540;28;20040;-70
2021/06/28 07:31:04;;;;;;;9.07;5.05;;;;;;;23.42;47.61;94245.28;5051197;28;20052;-69
2021/06/28 07:33:31;;;;;;;11.15;5.00;;;;;;;23.44;46.78;94248.41;5053324;28;20381;-71
2021/06/28 07:35:58;;;;;;;14.60;4.88;;;;;;;23.55;46.75;94250.38;5051046;28;20017;-70
2021/06/28 07:38:24;;;;;;;8.35;4.60;;;;;;;23.67;47.22;94244.59;5065561;28;20108;-70
2021/06/28 07:40:49;;;;;;;12.40;4.63;;;;;;;23.79;46.92;94241.50;5052972;28;20052;-68
2021/06/28 07:43:16;;;;;;;12.82;5.13;;;;;;;23.94;47.17;94241.50;5063275;28;20024;-69
2021/06/28 07:45:42;;;;;;;8.23;4.88;;;;;;;24.09;46.71;94253.94;5063541;28;20036;-69
2021/06/28 07:48:07;;;;;;;12.40;4.47;;;;;;;24.21;46.20;94252.78;5051206;28;20465;-69
2021/06/28 07:50:33;;;;;;;11.02;4.72;;;;;;;24.35;45.47;94251.97;5063890;28;20141;-69
2021/06/28 07:52:58;;;;;;;9.65;4.68;;;;;;;24.43;44.03;94250.81;5052003;28;20067;-69
2021/06/28 07:55:23;;;;;;;8.07;4.38;;;;;;;24.45;43.14;94251.19;5052879;28;20016;-71
2021/06/28 07:57:49;;;;;;;11.82;4.68;;;;;;;24.55;41.69;94255.88;5054190;28;20086;-69
2021/06/28 08:00:17;;;;;;;11.35;3.80;;;;;;;24.60;41.85;94260.13;5067569;28;20035;-69
2021/06/28 08:02:44;;;;;;;12.23;2.67;;;;;;;24.64;39.17;94255.44;5050990;28;20554;-69
2021/06/28 08:05:10;;;;;;;6.68;3.47;;;;;;;24.76;40.30;94265.16;5050448;28;20083;-70
2021/06/28 08:07:36;;;;;;;5.05;3.38;;;;;;;24.85;39.42;94262.78;5071119;28;20064;-70
2021/06/28 08:10:05;;;;;;;4.72;3.40;;;;;;;24.88;39.51;94262.00;5054433;28;20497;-69
2021/06/28 08:12:31;;;;;;;5.18;2.97;;;;;;;24.97;37.83;94262.38;5054371;28;20025;-70
2021/06/28 08:14:57;;;;;;;7.68;3.33;;;;;;;25.05;38.16;94259.59;5070229;28;20051;-70
2021/06/28 08:17:23;;;;;;;7.80;3.15;;;;;;;25.14;38.40;94265.41;5070539;28;20024;-69
2021/06/28 08:19:48;;;;;;;6.90;3.28;;;;;;;25.15;35.63;94253.31;5069374;28;20020;-69
2021/06/28 08:22:15;;;;;;;5.88;2.83;;;;;;;25.19;35.09;94265.00;5067475;28;20021;-70
2021/06/28 08:24:41;;;;;;;5.55;2.22;;;;;;;25.29;32.17;94264.19;5064653;28;20032;-70
2021/06/28 08:27:06;;;;;;;5.82;3.03;;;;;;;25.33;32.89;94264.94;5053459;28;20021;-70
2021/06/28 08:29:32;;;;;;;4.07;2.70;;;;;;;25.38;32.81;94264.53;5054467;28;20039;-69
2021/06/28 08:31:57;;;;;;;9.82;2.83;;;;;;;25.41;34.70;94273.88;5050786;28;20096;-69
2021/06/28 08:34:23;;;;;;;5.15;2.70;;;;;;;25.43;34.11;94264.13;5049995;28;20476;-70
2021/06/28 08:36:49;;;;;;;7.95;3.42;;;;;;;25.39;35.00;94274.28;5049201;28;20024;-71
2021/06/28 08:39:16;;;;;;;8.38;2.95;;;;;;;25.51;35.60;94266.81;5062891;28;20020;-69
2021/06/28 08:41:45;;;;;;;5.32;2.63;;;;;;;25.56;35.42;94264.41;5054000;28;20020;-69
2021/06/28 08:44:12;;;;;;;10.27;2.92;;;;;;;25.62;35.10;94262.06;5068699;28;20024;-69
2021/06/28 08:46:39;;;;;;;4.50;3.03;;;;;;;25.65;34.28;94264.00;5068792;28;20819;-70
2021/06/28 08:49:05;;;;;;;9.30;2.33;;;;;;;25.69;33.25;94256.56;5070464;28;20119;-69
2021/06/28 08:51:31;;;;;;;5.75;3.40;;;;;;;25.69;32.89;94255.78;5062080;28;20104;-70
2021/06/28 08:53:57;;;;;;;7.70;2.80;;;;;;;25.72;32.43;94261.22;5046657;28;20575;-70
2021/06/28 08:56:23;;;;;;;8.00;3.17;;;;;;;25.76;33.47;94256.50;5050486;28;20028;-69
2021/06/28 08:58:49;;;;;;;3.95;2.38;;;;;;;25.78;33.86;94250.66;5048877;28;20112;-70
2021/06/28 09:01:15;;;;;;;4.90;2.42;;;;;;;25.90;33.49;94254.88;5067879;28;20728;-70
2021/06/28 09:03:40;;;;;;;4.70;2.45;;;;;;;26.04;34.61;94251.28;5054482;28;20103;-70
2021/06/28 09:06:07;;;;;;;9.85;2.45;;;;;;;26.14;32.52;94250.41;5062450;28;20023;-70
2021/06/28 09:08:37;;;;;;;4.47;2.55;;;;;;;26.27;32.54;94256.91;5068650;28;20090;-68
2021/06/28 09:11:03;;;;;;;9.40;3.08;;;;;;;26.37;31.88;94252.53;5070079;28;20021;-70
2021/06/28 09:13:41;;;;;;;6.70;2.47;;;;;;;26.40;30.39;94255.25;5070168;28;20128;-70
2021/06/28 09:16:14;;;;;;;5.00;2.45;;;;;;;26.42;31.25;94247.41;5057187;28;20434;-70
2021/06/28 09:19:03;;;;;;;4.28;2.00;;;;;;;26.34;30.50;94251.41;5049606;28;20025;-70
2021/06/28 09:21:30;;;;;;;7.90;2.63;;;;;;;26.36;31.41;94253.72;5063204;28;20025;-69
2021/06/28 09:23:57;;;;;;;5.95;2.45;;;;;;;26.47;32.12;94246.19;5062196;28;20099;-70
2021/06/28 09:26:29;;;;;;;12.35;2.80;;;;;;;26.57;30.99;94250.78;5067565;28;20115;-71
2021/06/28 09:28:57;;;;;;;4.85;2.45;;;;;;;26.71;31.22;94251.84;5069217;28;20407;-68
2021/06/28 09:31:33;;;;;;;19.20;2.53;;;;;;;26.82;29.61;94255.22;5054221;28;20124;-70
2021/06/28 09:34:08;;;;;;;7.05;2.08;;;;;;;26.88;29.27;94264.53;5055924;28;20047;-69
2021/06/28 09:36:43;;;;;;;5.53;1.70;;;;;;;26.94;26.33;94257.44;5058854;28;20410;-68
2021/06/28 09:39:37;;;;;;;7.70;2.00;;;;;;;27.02;26.97;94269.06;5061867;28;20021;-69
2021/06/28 09:42:06;;;;;;;5.40;2.35;;;;;;;27.00;27.23;94272.19;5071908;28;20024;-69
2021/06/28 09:44:31;;;;;;;4.63;2.80;;;;;;;27.00;27.46;94269.47;5071812;28;20063;-69
2021/06/28 09:47:16;;;;;;;5.13;2.42;;;;;;;26.96;28.65;94271.47;5065136;28;20095;-70
2021/06/28 09:50:00;;;;;;;5.28;2.80;;;;;;;26.96;28.78;94263.25;5059612;28;20098;-70
2021/06/28 09:52:32;;;;;;;7.30;2.88;;;;;;;26.99;27.30;94254.25;5053398;28;20037;-69
2021/06/28 09:55:12;;;;;;;15.63;2.97;;;;;;;27.01;28.05;94257.34;5053609;28;20029;-70
2021/06/28 09:57:37;;;;;;;4.25;2.10;;;;;;;27.01;27.77;94254.63;5067054;28;20036;-69
2021/06/28 10:00:22;;;;;;;10.65;2.15;;;;;;;27.14;28.51;94257.59;5062315;28;20036;-70
2021/06/28 10:02:47;;;;;;;5.55;2.40;;;;;;;27.17;28.62;94254.03;5071493;28;20021;-69
2021/06/28 10:05:17;;;;;;;6.05;2.85;;;;;;;27.30;27.98;94262.50;5061353;28;20532;-69
2021/06/28 10:07:43;;;;;;;3.95;2.30;;;;;;;27.46;30.27;94264.66;5052553;28;20028;-69
2021/06/28 10:10:27;;;;;;;3.90;1.42;;;;;;;27.56;27.92;94271.13;5066560;28;20051;-69
2021/06/28 10:12:56;;;;;;;2.63;1.60;;;;;;;27.63;27.15;94262.84;5066482;28;20032;-69
2021/06/28 10:15:23;;;;;;;4.75;1.60;;;;;;;27.63;27.15;94254.63;5064505;28;20031;-69
2021/06/28 10:17:49;;;;;;;2.83;2.00;;;;;;;27.62;26.28;94264.03;5052200;28;20535;-69
2021/06/28 10:20:28;;;;;;;5.53;2.78;;;;;;;27.62;26.99;94253.09;5055258;28;20530;-70
2021/06/28 10:22:54;;;;;;;6.68;2.08;;;;;;;27.70;27.95;94243.59;5052137;28;20025;-71
2021/06/28 10:25:22;;;;;;;7.90;2.00;;;;;;;27.86;27.04;94244.91;5050916;28;20035;-70
2021/06/28 10:27:49;;;;;;;10.50;2.00;;;;;;;27.89;27.21;94242.13;5050925;28;20499;-70
2021/06/28 10:30:18;;;;;;;9.50;2.00;;;;;;;27.91;26.69;94244.47;5052702;28;20400;-71
2021/06/28 10:32:47;;;;;;;2.75;1.70;;;;;;;27.86;25.49;94244.91;5052465;28;20028;-70
2021/06/28 10:35:15;;;;;;;6.70;1.65;;;;;;;27.89;26.88;94241.38;5052637;28;20024;-70
2021/06/28 10:37:40;;;;;;;7.90;1.52;;;;;;;27.78;28.74;94242.28;5050436;28;20110;-71
2021/06/28 10:40:10;;;;;;;6.63;2.30;;;;;;;27.84;26.99;94239.06;5052332;28;20056;-70
2021/06/28 10:42:41;;;;;;;3.30;1.95;;;;;;;27.74;26.28;94230.59;5052479;28;20033;-70
2021/06/28 10:45:10;;;;;;;2.97;1.52;;;;;;;27.81;26.91;94227.75;5052386;28;20048;-70
2021/06/28 10:47:37;;;;;;;1.90;1.00;;;;;;;27.84;24.17;94230.84;5052217;28;20079;-70
2021/06/28 10:50:05;;;;;;;2.78;1.25;;;;;;;27.86;24.51;94217.50;5050802;28;20024;-70
2021/06/28 10:52:42;;;;;;;1.88;1.30;;;;;;;27.91;26.03;94215.13;5052253;28;20037;-70
2021/06/28 10:55:13;;;;;;;8.15;2.30;;;;;;;28.05;27.16;94216.06;5051387;28;20070;-71
2021/06/28 10:57:40;;;;;;;5.33;2.43;;;;;;;28.20;27.83;94217.38;5050844;28;20128;-71
2021/06/28 11:00:06;;;;;;;2.80;1.80;;;;;;;28.35;27.37;94220.63;5071788;28;20267;-71
2021/06/28 11:02:37;;;;;;;3.67;2.22;;;;;;;28.43;26.19;94216.56;5070615;28;20024;-71
2021/06/28 11:05:04;;;;;;;5.20;1.60;;;;;;;28.48;25.45;94218.84;5070895;28;20058;-72
2021/06/28 11:07:45;;;;;;;6.00;1.45;;;;;;;28.44;24.35;94209.91;5059078;28;20028;-71
2021/06/28 11:10:42;;;;;;;1.88;0.93;;;;;;;28.33;23.21;94206.56;5050376;28;20058;-72
2021/06/28 11:13:38;;;;;;;1.67;1.00;;;;;;;28.32;23.39;94203.06;5051449;28;20041;-71
2021/06/28 11:16:32;;;;;;;1.55;0.90;;;;;;;28.22;21.19;94204.03;5051691;28;20028;-72
2021/06/28 11:18:59;;;;;;;1.48;0.90;;;;;;;28.23;21.62;94202.06;5051667;28;20036;-72
2021/06/28 11:21:41;;;;;;;2.17;0.88;;;;;;;28.25;21.91;94203.22;5050116;28;20174;-71
2021/06/28 11:24:06;;;;;;;;;;;;;;;28.33;22.21;94192.88;5052041;28;20017;-71
2021/06/28 11:26:36;;;;;;;3.70;1.23;;;;;;;28.38;22.68;94192.41;5051382;28;19942;-71
2021/06/28 11:29:03;;;;;;;2.55;1.23;;;;;;;28.45;25.28;94197.72;5058120;28;20024;-70